sensor_id;sensor_type;location;lat;lon;timestamp;P1;durP1;ratioP1;P2;durP2;ratioP2
4307;SDS011;2167;53.448;9.984;2023-02-04T00:00:12;4.03;;;0.97;;
4307;SDS011;2167;53.448;9.984;2023-02-04T00:02:39;0.60;;;0.60;;
4307;SDS011;2167;53.448;9.984;2023-02-04T00:05:06;0.50;;;0.50;;
4307;SDS011;2167;53.448;9.984;2023-02-04T00:07:32;1.20;;;0.60;;
4307;SDS011;2167;53.448;9.984;2023-02-04T00:09:58;1.13;;;0.60;;
4307;SDS011;2167;53.448;9.984;2023-02-04T00:12:23;0.60;;;0.60;;
4307;SDS011;2167;53.448;9.984;2023-02-04T00:14:49;1.77;;;1.10;;
4307;SDS011;2167;53.448;9.984;2023-02-04T00:17:14;0.47;;;0.43;;
4307;SDS011;2167;53.448;9.984;2023-02-04T00:19:40;5.20;;;0.93;;
4307;SDS011;2167;53.448;9.984;2023-02-04T00:22:07;1.70;;;0.60;;
4307;SDS011;2167;53.448;9.984;2023-02-04T00:24:33;0.77;;;0.60;;
4307;SDS011;2167;53.448;9.984;2023-02-04T00:26:59;0.60;;;0.60;;
4307;SDS011;2167;53.448;9.984;2023-02-04T00:29:25;0.63;;;0.63;;
4307;SDS011;2167;53.448;9.984;2023-02-04T00:31:50;0.80;;;0.80;;
4307;SDS011;2167;53.448;9.984;2023-02-04T00:34:16;1.13;;;0.90;;
4307;SDS011;2167;53.448;9.984;2023-02-04T00:36:42;0.97;;;0.80;;
4307;SDS011;2167;53.448;9.984;2023-02-04T00:39:08;0.73;;;0.70;;
4307;SDS011;2167;53.448;9.984;2023-02-04T00:41:34;0.63;;;0.53;;
4307;SDS011;2167;53.448;9.984;2023-02-04T00:43:59;0.70;;;0.47;;
4307;SDS011;2167;53.448;9.984;2023-02-04T00:46:25;0.50;;;0.50;;
4307;SDS011;2167;53.448;9.984;2023-02-04T00:48:51;0.80;;;0.60;;
4307;SDS011;2167;53.448;9.984;2023-02-04T00:51:16;0.83;;;0.70;;
4307;SDS011;2167;53.448;9.984;2023-02-04T00:53:42;0.93;;;0.40;;
4307;SDS011;2167;53.448;9.984;2023-02-04T00:56:07;1.50;;;0.83;;
4307;SDS011;2167;53.448;9.984;2023-02-04T00:58:33;1.00;;;0.67;;
4307;SDS011;2167;53.448;9.984;2023-02-04T01:00:59;1.43;;;0.87;;
4307;SDS011;2167;53.448;9.984;2023-02-04T01:03:24;2.30;;;0.60;;
4307;SDS011;2167;53.448;9.984;2023-02-04T01:05:50;0.50;;;0.37;;
4307;SDS011;2167;53.448;9.984;2023-02-04T01:08:16;0.97;;;0.57;;
4307;SDS011;2167;53.448;9.984;2023-02-04T01:10:41;0.80;;;0.60;;
4307;SDS011;2167;53.448;9.984;2023-02-04T01:13:07;4.60;;;0.60;;
4307;SDS011;2167;53.448;9.984;2023-02-04T01:15:34;1.03;;;0.60;;
4307;SDS011;2167;53.448;9.984;2023-02-04T01:18:00;1.27;;;1.17;;
4307;SDS011;2167;53.448;9.984;2023-02-04T01:20:26;0.67;;;0.53;;
4307;SDS011;2167;53.448;9.984;2023-02-04T01:22:52;0.97;;;0.83;;
4307;SDS011;2167;53.448;9.984;2023-02-04T01:25:17;2.50;;;0.93;;
4307;SDS011;2167;53.448;9.984;2023-02-04T01:27:43;0.90;;;0.90;;
4307;SDS011;2167;53.448;9.984;2023-02-04T01:30:09;0.70;;;0.70;;
4307;SDS011;2167;53.448;9.984;2023-02-04T01:32:37;2.23;;;0.63;;
4307;SDS011;2167;53.448;9.984;2023-02-04T01:35:03;3.17;;;0.93;;
4307;SDS011;2167;53.448;9.984;2023-02-04T01:37:29;1.73;;;1.57;;
4307;SDS011;2167;53.448;9.984;2023-02-04T01:39:55;3.30;;;0.80;;
4307;SDS011;2167;53.448;9.984;2023-02-04T01:42:20;1.23;;;1.00;;
4307;SDS011;2167;53.448;9.984;2023-02-04T01:44:46;1.23;;;1.13;;
4307;SDS011;2167;53.448;9.984;2023-02-04T01:47:12;0.80;;;0.80;;
4307;SDS011;2167;53.448;9.984;2023-02-04T01:49:38;1.33;;;0.80;;
4307;SDS011;2167;53.448;9.984;2023-02-04T01:52:03;1.20;;;1.10;;
4307;SDS011;2167;53.448;9.984;2023-02-04T01:54:29;0.90;;;0.90;;
4307;SDS011;2167;53.448;9.984;2023-02-04T01:56:56;1.00;;;0.90;;
4307;SDS011;2167;53.448;9.984;2023-02-04T01:59:22;9.50;;;1.10;;
4307;SDS011;2167;53.448;9.984;2023-02-04T02:01:49;0.93;;;0.93;;
4307;SDS011;2167;53.448;9.984;2023-02-04T02:04:17;6.70;;;1.43;;
4307;SDS011;2167;53.448;9.984;2023-02-04T02:06:57;1.63;;;0.70;;
4307;SDS011;2167;53.448;9.984;2023-02-04T02:09:26;1.30;;;1.20;;
4307;SDS011;2167;53.448;9.984;2023-02-04T02:11:52;0.97;;;0.70;;
4307;SDS011;2167;53.448;9.984;2023-02-04T02:14:18;1.40;;;0.97;;
4307;SDS011;2167;53.448;9.984;2023-02-04T02:16:44;1.57;;;1.37;;
4307;SDS011;2167;53.448;9.984;2023-02-04T02:19:11;0.90;;;0.90;;
4307;SDS011;2167;53.448;9.984;2023-02-04T02:22:02;1.27;;;1.17;;
4307;SDS011;2167;53.448;9.984;2023-02-04T02:24:33;0.60;;;0.60;;
4307;SDS011;2167;53.448;9.984;2023-02-04T02:27:03;1.00;;;0.87;;
4307;SDS011;2167;53.448;9.984;2023-02-04T02:29:33;0.60;;;0.60;;
4307;SDS011;2167;53.448;9.984;2023-02-04T02:32:00;2.30;;;1.60;;
4307;SDS011;2167;53.448;9.984;2023-02-04T02:34:26;0.70;;;0.70;;
4307;SDS011;2167;53.448;9.984;2023-02-04T02:36:52;1.80;;;1.23;;
4307;SDS011;2167;53.448;9.984;2023-02-04T02:39:18;2.20;;;1.30;;
4307;SDS011;2167;53.448;9.984;2023-02-04T02:41:45;1.27;;;0.70;;
4307;SDS011;2167;53.448;9.984;2023-02-04T02:44:11;2.63;;;1.00;;
4307;SDS011;2167;53.448;9.984;2023-02-04T02:46:37;0.80;;;0.80;;
4307;SDS011;2167;53.448;9.984;2023-02-04T02:49:03;0.90;;;0.83;;
4307;SDS011;2167;53.448;9.984;2023-02-04T02:51:30;1.13;;;0.87;;
4307;SDS011;2167;53.448;9.984;2023-02-04T02:53:55;1.20;;;1.10;;
4307;SDS011;2167;53.448;9.984;2023-02-04T02:56:21;1.40;;;1.10;;
4307;SDS011;2167;53.448;9.984;2023-02-04T02:58:47;0.93;;;0.87;;
4307;SDS011;2167;53.448;9.984;2023-02-04T03:01:13;1.10;;;1.03;;
4307;SDS011;2167;53.448;9.984;2023-02-04T03:03:41;2.03;;;1.50;;
4307;SDS011;2167;53.448;9.984;2023-02-04T03:06:15;3.50;;;1.80;;
4307;SDS011;2167;53.448;9.984;2023-02-04T03:08:51;1.67;;;0.90;;
4307;SDS011;2167;53.448;9.984;2023-02-04T03:11:20;5.50;;;1.50;;
4307;SDS011;2167;53.448;9.984;2023-02-04T03:13:47;1.23;;;0.87;;
4307;SDS011;2167;53.448;9.984;2023-02-04T03:16:14;2.10;;;1.37;;
4307;SDS011;2167;53.448;9.984;2023-02-04T03:18:40;0.93;;;0.93;;
4307;SDS011;2167;53.448;9.984;2023-02-04T03:21:06;1.23;;;1.03;;
4307;SDS011;2167;53.448;9.984;2023-02-04T03:23:32;1.37;;;1.23;;
4307;SDS011;2167;53.448;9.984;2023-02-04T03:25:59;1.20;;;1.10;;
4307;SDS011;2167;53.448;9.984;2023-02-04T03:28:26;1.40;;;1.17;;
4307;SDS011;2167;53.448;9.984;2023-02-04T03:30:52;1.33;;;1.10;;
4307;SDS011;2167;53.448;9.984;2023-02-04T03:33:19;1.30;;;1.20;;
4307;SDS011;2167;53.448;9.984;2023-02-04T03:35:46;4.63;;;0.93;;
4307;SDS011;2167;53.448;9.984;2023-02-04T03:38:12;1.43;;;0.90;;
4307;SDS011;2167;53.448;9.984;2023-02-04T03:40:37;0.87;;;0.70;;
4307;SDS011;2167;53.448;9.984;2023-02-04T03:43:03;1.43;;;0.70;;
4307;SDS011;2167;53.448;9.984;2023-02-04T03:45:29;0.67;;;0.67;;
4307;SDS011;2167;53.448;9.984;2023-02-04T03:47:54;1.77;;;1.30;;
4307;SDS011;2167;53.448;9.984;2023-02-04T03:50:20;0.77;;;0.77;;
4307;SDS011;2167;53.448;9.984;2023-02-04T03:52:45;3.13;;;1.10;;
4307;SDS011;2167;53.448;9.984;2023-02-04T03:55:12;0.70;;;0.70;;
4307;SDS011;2167;53.448;9.984;2023-02-04T03:57:38;0.70;;;0.70;;
4307;SDS011;2167;53.448;9.984;2023-02-04T04:00:04;2.73;;;1.47;;
4307;SDS011;2167;53.448;9.984;2023-02-04T04:02:30;2.27;;;0.90;;
4307;SDS011;2167;53.448;9.984;2023-02-04T04:04:56;2.17;;;1.20;;
4307;SDS011;2167;53.448;9.984;2023-02-04T04:07:21;4.33;;;1.10;;
4307;SDS011;2167;53.448;9.984;2023-02-04T04:09:47;1.43;;;1.20;;
4307;SDS011;2167;53.448;9.984;2023-02-04T04:12:12;2.10;;;1.33;;
4307;SDS011;2167;53.448;9.984;2023-02-04T04:14:38;1.80;;;0.93;;
4307;SDS011;2167;53.448;9.984;2023-02-04T04:17:04;1.73;;;1.07;;
4307;SDS011;2167;53.448;9.984;2023-02-04T04:19:29;1.00;;;1.00;;
4307;SDS011;2167;53.448;9.984;2023-02-04T04:21:56;1.10;;;1.00;;
4307;SDS011;2167;53.448;9.984;2023-02-04T04:24:22;1.53;;;0.80;;
4307;SDS011;2167;53.448;9.984;2023-02-04T04:26:48;1.10;;;0.90;;
4307;SDS011;2167;53.448;9.984;2023-02-04T04:29:13;2.43;;;2.10;;
4307;SDS011;2167;53.448;9.984;2023-02-04T04:31:39;1.90;;;0.97;;
4307;SDS011;2167;53.448;9.984;2023-02-04T04:34:04;1.67;;;1.03;;
4307;SDS011;2167;53.448;9.984;2023-02-04T04:36:30;2.33;;;1.30;;
4307;SDS011;2167;53.448;9.984;2023-02-04T04:38:55;0.60;;;0.60;;
4307;SDS011;2167;53.448;9.984;2023-02-04T04:41:21;1.87;;;1.30;;
4307;SDS011;2167;53.448;9.984;2023-02-04T04:43:47;1.30;;;1.20;;
4307;SDS011;2167;53.448;9.984;2023-02-04T04:46:12;1.67;;;0.97;;
4307;SDS011;2167;53.448;9.984;2023-02-04T04:48:38;1.37;;;1.27;;
4307;SDS011;2167;53.448;9.984;2023-02-04T04:51:03;1.50;;;1.40;;
4307;SDS011;2167;53.448;9.984;2023-02-04T04:53:29;4.43;;;1.87;;
4307;SDS011;2167;53.448;9.984;2023-02-04T04:55:55;1.40;;;1.00;;
4307;SDS011;2167;53.448;9.984;2023-02-04T04:58:21;1.50;;;1.27;;
4307;SDS011;2167;53.448;9.984;2023-02-04T05:00:46;2.13;;;1.60;;
4307;SDS011;2167;53.448;9.984;2023-02-04T05:03:12;1.80;;;1.50;;
4307;SDS011;2167;53.448;9.984;2023-02-04T05:05:37;1.80;;;1.70;;
4307;SDS011;2167;53.448;9.984;2023-02-04T05:08:05;4.47;;;1.50;;
4307;SDS011;2167;53.448;9.984;2023-02-04T05:10:36;3.97;;;1.83;;
4307;SDS011;2167;53.448;9.984;2023-02-04T05:13:03;2.70;;;1.27;;
4307;SDS011;2167;53.448;9.984;2023-02-04T05:15:29;2.80;;;1.60;;
4307;SDS011;2167;53.448;9.984;2023-02-04T05:17:54;3.27;;;1.70;;
4307;SDS011;2167;53.448;9.984;2023-02-04T05:20:20;2.60;;;2.05;;
4307;SDS011;2167;53.448;9.984;2023-02-04T05:22:46;3.47;;;1.80;;
4307;SDS011;2167;53.448;9.984;2023-02-04T05:25:11;1.93;;;1.70;;
4307;SDS011;2167;53.448;9.984;2023-02-04T05:27:37;1.83;;;1.50;;
4307;SDS011;2167;53.448;9.984;2023-02-04T05:30:03;1.47;;;1.37;;
4307;SDS011;2167;53.448;9.984;2023-02-04T05:32:29;1.50;;;1.40;;
4307;SDS011;2167;53.448;9.984;2023-02-04T05:34:54;1.33;;;1.20;;
4307;SDS011;2167;53.448;9.984;2023-02-04T05:37:20;3.47;;;1.80;;
4307;SDS011;2167;53.448;9.984;2023-02-04T05:39:45;1.10;;;1.10;;
4307;SDS011;2167;53.448;9.984;2023-02-04T05:42:11;2.27;;;1.40;;
4307;SDS011;2167;53.448;9.984;2023-02-04T05:44:37;1.93;;;1.83;;
4307;SDS011;2167;53.448;9.984;2023-02-04T05:47:02;1.33;;;1.23;;
4307;SDS011;2167;53.448;9.984;2023-02-04T05:49:28;6.30;;;2.20;;
4307;SDS011;2167;53.448;9.984;2023-02-04T05:51:54;1.97;;;1.27;;
4307;SDS011;2167;53.448;9.984;2023-02-04T05:54:19;2.63;;;1.43;;
4307;SDS011;2167;53.448;9.984;2023-02-04T05:56:45;1.70;;;1.30;;
4307;SDS011;2167;53.448;9.984;2023-02-04T05:59:11;2.00;;;1.73;;
4307;SDS011;2167;53.448;9.984;2023-02-04T06:01:37;1.80;;;1.27;;
4307;SDS011;2167;53.448;9.984;2023-02-04T06:04:03;1.40;;;1.23;;
4307;SDS011;2167;53.448;9.984;2023-02-04T06:06:32;0.83;;;0.83;;
4307;SDS011;2167;53.448;9.984;2023-02-04T06:08:58;1.10;;;1.00;;
4307;SDS011;2167;53.448;9.984;2023-02-04T06:11:24;2.00;;;1.70;;
4307;SDS011;2167;53.448;9.984;2023-02-04T06:13:49;1.60;;;1.20;;
4307;SDS011;2167;53.448;9.984;2023-02-04T06:16:15;2.77;;;1.83;;
4307;SDS011;2167;53.448;9.984;2023-02-04T06:18:40;1.00;;;0.90;;
4307;SDS011;2167;53.448;9.984;2023-02-04T06:21:06;0.90;;;0.90;;
4307;SDS011;2167;53.448;9.984;2023-02-04T06:23:32;4.20;;;1.70;;
4307;SDS011;2167;53.448;9.984;2023-02-04T06:25:58;1.80;;;1.60;;
4307;SDS011;2167;53.448;9.984;2023-02-04T06:28:24;6.10;;;1.40;;
4307;SDS011;2167;53.448;9.984;2023-02-04T06:30:50;1.23;;;1.13;;
4307;SDS011;2167;53.448;9.984;2023-02-04T06:33:15;1.53;;;1.43;;
4307;SDS011;2167;53.448;9.984;2023-02-04T06:35:41;0.83;;;0.83;;
4307;SDS011;2167;53.448;9.984;2023-02-04T06:38:07;1.87;;;1.17;;
4307;SDS011;2167;53.448;9.984;2023-02-04T06:40:32;2.83;;;1.10;;
4307;SDS011;2167;53.448;9.984;2023-02-04T06:42:58;2.80;;;1.20;;
4307;SDS011;2167;53.448;9.984;2023-02-04T06:45:23;2.80;;;1.40;;
4307;SDS011;2167;53.448;9.984;2023-02-04T06:47:49;1.30;;;1.10;;
4307;SDS011;2167;53.448;9.984;2023-02-04T06:50:15;4.40;;;1.53;;
4307;SDS011;2167;53.448;9.984;2023-02-04T06:52:44;1.20;;;1.07;;
4307;SDS011;2167;53.448;9.984;2023-02-04T06:55:10;2.33;;;1.70;;
4307;SDS011;2167;53.448;9.984;2023-02-04T06:57:40;2.43;;;1.37;;
4307;SDS011;2167;53.448;9.984;2023-02-04T07:00:06;4.37;;;1.63;;
4307;SDS011;2167;53.448;9.984;2023-02-04T07:02:33;3.30;;;2.33;;
4307;SDS011;2167;53.448;9.984;2023-02-04T07:04:59;1.50;;;1.30;;
4307;SDS011;2167;53.448;9.984;2023-02-04T07:07:25;3.23;;;2.33;;
4307;SDS011;2167;53.448;9.984;2023-02-04T07:09:51;5.43;;;2.47;;
4307;SDS011;2167;53.448;9.984;2023-02-04T07:12:16;2.10;;;2.00;;
4307;SDS011;2167;53.448;9.984;2023-02-04T07:14:42;2.47;;;1.50;;
4307;SDS011;2167;53.448;9.984;2023-02-04T07:17:08;3.27;;;2.20;;
4307;SDS011;2167;53.448;9.984;2023-02-04T07:19:33;2.37;;;1.80;;
4307;SDS011;2167;53.448;9.984;2023-02-04T07:22:01;1.83;;;1.73;;
4307;SDS011;2167;53.448;9.984;2023-02-04T07:24:28;2.80;;;2.10;;
4307;SDS011;2167;53.448;9.984;2023-02-04T07:26:53;2.00;;;1.90;;
4307;SDS011;2167;53.448;9.984;2023-02-04T07:29:20;5.30;;;2.50;;
4307;SDS011;2167;53.448;9.984;2023-02-04T07:31:46;2.10;;;1.70;;
4307;SDS011;2167;53.448;9.984;2023-02-04T07:34:12;2.40;;;1.83;;
4307;SDS011;2167;53.448;9.984;2023-02-04T07:36:38;2.17;;;2.00;;
4307;SDS011;2167;53.448;9.984;2023-02-04T07:39:04;2.73;;;2.53;;
4307;SDS011;2167;53.448;9.984;2023-02-04T07:41:30;9.07;;;3.43;;
4307;SDS011;2167;53.448;9.984;2023-02-04T07:44:01;4.30;;;3.70;;
4307;SDS011;2167;53.448;9.984;2023-02-04T07:46:30;2.70;;;2.57;;
4307;SDS011;2167;53.448;9.984;2023-02-04T07:48:55;4.10;;;3.70;;
4307;SDS011;2167;53.448;9.984;2023-02-04T07:51:21;6.80;;;3.03;;
4307;SDS011;2167;53.448;9.984;2023-02-04T07:53:46;8.50;;;2.80;;
4307;SDS011;2167;53.448;9.984;2023-02-04T07:56:12;2.87;;;1.87;;
4307;SDS011;2167;53.448;9.984;2023-02-04T07:58:38;2.63;;;2.30;;
4307;SDS011;2167;53.448;9.984;2023-02-04T08:01:04;2.30;;;2.10;;
4307;SDS011;2167;53.448;9.984;2023-02-04T08:03:30;3.07;;;2.07;;
4307;SDS011;2167;53.448;9.984;2023-02-04T08:05:55;2.60;;;2.20;;
4307;SDS011;2167;53.448;9.984;2023-02-04T08:08:21;4.87;;;3.80;;
4307;SDS011;2167;53.448;9.984;2023-02-04T08:10:46;4.97;;;2.57;;
4307;SDS011;2167;53.448;9.984;2023-02-04T08:13:12;2.43;;;1.90;;
4307;SDS011;2167;53.448;9.984;2023-02-04T08:15:38;2.43;;;1.93;;
4307;SDS011;2167;53.448;9.984;2023-02-04T08:18:03;2.67;;;2.40;;
4307;SDS011;2167;53.448;9.984;2023-02-04T08:20:29;2.60;;;2.07;;
4307;SDS011;2167;53.448;9.984;2023-02-04T08:22:55;3.17;;;2.87;;
4307;SDS011;2167;53.448;9.984;2023-02-04T08:25:21;2.13;;;1.83;;
4307;SDS011;2167;53.448;9.984;2023-02-04T08:27:46;5.43;;;2.37;;
4307;SDS011;2167;53.448;9.984;2023-02-04T08:30:12;3.10;;;2.00;;
4307;SDS011;2167;53.448;9.984;2023-02-04T08:32:47;2.63;;;2.43;;
4307;SDS011;2167;53.448;9.984;2023-02-04T08:35:13;2.47;;;1.83;;
4307;SDS011;2167;53.448;9.984;2023-02-04T08:37:38;5.10;;;2.60;;
4307;SDS011;2167;53.448;9.984;2023-02-04T08:40:04;2.30;;;1.43;;
4307;SDS011;2167;53.448;9.984;2023-02-04T08:42:30;2.73;;;2.50;;
4307;SDS011;2167;53.448;9.984;2023-02-04T08:44:56;2.73;;;2.00;;
4307;SDS011;2167;53.448;9.984;2023-02-04T08:47:21;2.60;;;1.53;;
4307;SDS011;2167;53.448;9.984;2023-02-04T08:49:47;2.23;;;1.57;;
4307;SDS011;2167;53.448;9.984;2023-02-04T08:52:15;3.50;;;2.00;;
4307;SDS011;2167;53.448;9.984;2023-02-04T08:54:40;2.00;;;1.80;;
4307;SDS011;2167;53.448;9.984;2023-02-04T08:57:06;2.87;;;1.60;;
4307;SDS011;2167;53.448;9.984;2023-02-04T08:59:31;2.93;;;1.37;;
4307;SDS011;2167;53.448;9.984;2023-02-04T09:01:57;2.10;;;1.57;;
4307;SDS011;2167;53.448;9.984;2023-02-04T09:04:23;4.80;;;2.40;;
4307;SDS011;2167;53.448;9.984;2023-02-04T09:06:49;3.27;;;2.20;;
4307;SDS011;2167;53.448;9.984;2023-02-04T09:09:15;2.10;;;1.57;;
4307;SDS011;2167;53.448;9.984;2023-02-04T09:11:41;1.60;;;1.10;;
4307;SDS011;2167;53.448;9.984;2023-02-04T09:14:07;1.50;;;1.13;;
4307;SDS011;2167;53.448;9.984;2023-02-04T09:16:33;3.20;;;2.30;;
4307;SDS011;2167;53.448;9.984;2023-02-04T09:18:59;4.73;;;1.73;;
4307;SDS011;2167;53.448;9.984;2023-02-04T09:21:28;1.73;;;1.63;;
4307;SDS011;2167;53.448;9.984;2023-02-04T09:23:54;2.97;;;2.37;;
4307;SDS011;2167;53.448;9.984;2023-02-04T09:26:20;4.60;;;1.00;;
4307;SDS011;2167;53.448;9.984;2023-02-04T09:28:45;1.87;;;1.50;;
4307;SDS011;2167;53.448;9.984;2023-02-04T09:31:12;2.23;;;1.43;;
4307;SDS011;2167;53.448;9.984;2023-02-04T09:33:38;1.47;;;1.30;;
4307;SDS011;2167;53.448;9.984;2023-02-04T09:36:07;1.30;;;1.20;;
4307;SDS011;2167;53.448;9.984;2023-02-04T09:38:32;1.97;;;1.87;;
4307;SDS011;2167;53.448;9.984;2023-02-04T09:41:00;1.60;;;1.50;;
4307;SDS011;2167;53.448;9.984;2023-02-04T09:43:38;3.53;;;2.20;;
4307;SDS011;2167;53.448;9.984;2023-02-04T09:46:07;1.63;;;1.10;;
4307;SDS011;2167;53.448;9.984;2023-02-04T09:48:44;1.60;;;1.27;;
4307;SDS011;2167;53.448;9.984;2023-02-04T09:51:17;1.67;;;1.57;;
4307;SDS011;2167;53.448;9.984;2023-02-04T09:53:47;1.90;;;1.23;;
4307;SDS011;2167;53.448;9.984;2023-02-04T09:56:14;1.90;;;1.67;;
4307;SDS011;2167;53.448;9.984;2023-02-04T09:58:39;1.63;;;1.50;;
4307;SDS011;2167;53.448;9.984;2023-02-04T10:01:16;1.33;;;1.23;;
4307;SDS011;2167;53.448;9.984;2023-02-04T10:03:44;1.83;;;1.30;;
4307;SDS011;2167;53.448;9.984;2023-02-04T10:06:17;1.93;;;1.20;;
4307;SDS011;2167;53.448;9.984;2023-02-04T10:08:45;1.50;;;1.27;;
4307;SDS011;2167;53.448;9.984;2023-02-04T10:11:12;2.07;;;1.47;;
4307;SDS011;2167;53.448;9.984;2023-02-04T10:13:43;3.17;;;1.43;;
4307;SDS011;2167;53.448;9.984;2023-02-04T10:16:14;1.63;;;1.17;;
4307;SDS011;2167;53.448;9.984;2023-02-04T10:18:43;2.53;;;1.87;;
4307;SDS011;2167;53.448;9.984;2023-02-04T10:21:23;1.93;;;1.53;;
4307;SDS011;2167;53.448;9.984;2023-02-04T10:23:55;1.00;;;1.00;;
4307;SDS011;2167;53.448;9.984;2023-02-04T10:26:22;1.97;;;1.77;;
4307;SDS011;2167;53.448;9.984;2023-02-04T10:29:02;2.47;;;1.35;;
4307;SDS011;2167;53.448;9.984;2023-02-04T10:31:33;3.30;;;1.60;;
4307;SDS011;2167;53.448;9.984;2023-02-04T10:36:30;1.20;;;1.10;;
4307;SDS011;2167;53.448;9.984;2023-02-04T10:39:03;2.03;;;1.43;;
4307;SDS011;2167;53.448;9.984;2023-02-04T10:41:44;2.00;;;1.10;;
4307;SDS011;2167;53.448;9.984;2023-02-04T10:44:15;6.00;;;1.43;;
4307;SDS011;2167;53.448;9.984;2023-02-04T10:46:57;0.70;;;0.70;;
4307;SDS011;2167;53.448;9.984;2023-02-04T10:49:27;5.00;;;1.67;;
4307;SDS011;2167;53.448;9.984;2023-02-04T10:51:53;1.17;;;1.03;;
4307;SDS011;2167;53.448;9.984;2023-02-04T10:54:19;1.10;;;1.00;;
4307;SDS011;2167;53.448;9.984;2023-02-04T10:57:29;1.52;;;1.30;;
4307;SDS011;2167;53.448;9.984;2023-02-04T10:59:50;2.70;;;0.97;;
4307;SDS011;2167;53.448;9.984;2023-02-04T11:05:34;1.13;;;0.77;;
4307;SDS011;2167;53.448;9.984;2023-02-04T11:08:00;0.67;;;0.67;;
4307;SDS011;2167;53.448;9.984;2023-02-04T11:10:29;3.30;;;0.90;;
4307;SDS011;2167;53.448;9.984;2023-02-04T11:20:49;1.00;;;1.00;;
4307;SDS011;2167;53.448;9.984;2023-02-04T11:31:26;3.57;;;1.37;;
4307;SDS011;2167;53.448;9.984;2023-02-04T11:39:26;0.60;;;0.60;;
4307;SDS011;2167;53.448;9.984;2023-02-04T11:41:57;1.90;;;1.27;;
4307;SDS011;2167;53.448;9.984;2023-02-04T11:44:24;3.10;;;1.10;;
4307;SDS011;2167;53.448;9.984;2023-02-04T11:46:50;1.63;;;1.17;;
4307;SDS011;2167;53.448;9.984;2023-02-04T11:49:19;2.77;;;1.80;;
4307;SDS011;2167;53.448;9.984;2023-02-04T11:51:45;2.63;;;0.77;;
4307;SDS011;2167;53.448;9.984;2023-02-04T11:54:12;2.20;;;1.30;;
4307;SDS011;2167;53.448;9.984;2023-02-04T11:56:40;2.23;;;0.60;;
4307;SDS011;2167;53.448;9.984;2023-02-04T11:59:08;2.63;;;0.70;;
4307;SDS011;2167;53.448;9.984;2023-02-04T12:01:35;0.70;;;0.70;;
4307;SDS011;2167;53.448;9.984;2023-02-04T12:04:02;1.33;;;0.70;;
4307;SDS011;2167;53.448;9.984;2023-02-04T12:06:32;1.23;;;1.07;;
4307;SDS011;2167;53.448;9.984;2023-02-04T12:11:50;2.20;;;0.80;;
4307;SDS011;2167;53.448;9.984;2023-02-04T12:14:17;0.83;;;0.83;;
4307;SDS011;2167;53.448;9.984;2023-02-04T12:16:44;1.17;;;1.10;;
4307;SDS011;2167;53.448;9.984;2023-02-04T12:19:10;0.80;;;0.80;;
4307;SDS011;2167;53.448;9.984;2023-02-04T12:21:37;1.03;;;0.73;;
4307;SDS011;2167;53.448;9.984;2023-02-04T12:24:03;3.60;;;1.33;;
4307;SDS011;2167;53.448;9.984;2023-02-04T12:26:28;1.30;;;0.63;;
4307;SDS011;2167;53.448;9.984;2023-02-04T12:28:54;1.17;;;0.73;;
4307;SDS011;2167;53.448;9.984;2023-02-04T12:31:20;2.40;;;1.10;;
4307;SDS011;2167;53.448;9.984;2023-02-04T12:33:46;0.60;;;0.60;;
4307;SDS011;2167;53.448;9.984;2023-02-04T12:36:11;0.73;;;0.73;;
4307;SDS011;2167;53.448;9.984;2023-02-04T12:38:37;1.17;;;0.90;;
4307;SDS011;2167;53.448;9.984;2023-02-04T12:41:03;1.40;;;0.63;;
4307;SDS011;2167;53.448;9.984;2023-02-04T12:43:28;1.70;;;0.70;;
4307;SDS011;2167;53.448;9.984;2023-02-04T12:45:54;4.00;;;0.90;;
4307;SDS011;2167;53.448;9.984;2023-02-04T12:48:20;1.60;;;1.00;;
4307;SDS011;2167;53.448;9.984;2023-02-04T12:50:48;1.33;;;0.70;;
4307;SDS011;2167;53.448;9.984;2023-02-04T12:53:24;1.40;;;0.80;;
4307;SDS011;2167;53.448;9.984;2023-02-04T12:56:04;1.50;;;0.80;;
4307;SDS011;2167;53.448;9.984;2023-02-04T12:58:43;0.60;;;0.57;;
4307;SDS011;2167;53.448;9.984;2023-02-04T13:01:14;0.60;;;0.60;;
4307;SDS011;2167;53.448;9.984;2023-02-04T13:03:54;0.90;;;0.90;;
4307;SDS011;2167;53.448;9.984;2023-02-04T13:06:29;1.33;;;0.90;;
4307;SDS011;2167;53.448;9.984;2023-02-04T13:09:11;3.67;;;0.90;;
4307;SDS011;2167;53.448;9.984;2023-02-04T13:11:46;1.00;;;1.00;;
4307;SDS011;2167;53.448;9.984;2023-02-04T13:14:52;1.30;;;0.67;;
4307;SDS011;2167;53.448;9.984;2023-02-04T13:20:43;0.50;;;0.50;;
4307;SDS011;2167;53.448;9.984;2023-02-04T13:23:56;1.13;;;0.80;;
4307;SDS011;2167;53.448;9.984;2023-02-04T13:26:38;2.60;;;0.90;;
4307;SDS011;2167;53.448;9.984;2023-02-04T13:33:32;0.97;;;0.73;;
4307;SDS011;2167;53.448;9.984;2023-02-04T13:36:20;2.20;;;1.57;;
4307;SDS011;2167;53.448;9.984;2023-02-04T13:41:57;2.60;;;1.00;;
4307;SDS011;2167;53.448;9.984;2023-02-04T13:45:04;1.90;;;0.85;;
4307;SDS011;2167;53.448;9.984;2023-02-04T13:48:09;1.40;;;0.97;;
4307;SDS011;2167;53.448;9.984;2023-02-04T13:50:57;0.80;;;0.70;;
4307;SDS011;2167;53.448;9.984;2023-02-04T13:53:38;1.47;;;0.57;;
4307;SDS011;2167;53.448;9.984;2023-02-04T13:56:49;6.90;;;1.53;;
4307;SDS011;2167;53.448;9.984;2023-02-04T13:59:59;10.57;;;2.60;;
4307;SDS011;2167;53.448;9.984;2023-02-04T14:02:46;0.50;;;0.50;;
4307;SDS011;2167;53.448;9.984;2023-02-04T14:05:41;1.13;;;0.77;;
4307;SDS011;2167;53.448;9.984;2023-02-04T14:08:09;1.60;;;1.10;;
4307;SDS011;2167;53.448;9.984;2023-02-04T14:10:35;0.97;;;0.77;;
4307;SDS011;2167;53.448;9.984;2023-02-04T14:13:15;0.90;;;0.87;;
4307;SDS011;2167;53.448;9.984;2023-02-04T14:15:55;0.40;;;0.40;;
4307;SDS011;2167;53.448;9.984;2023-02-04T14:18:27;1.20;;;1.10;;
4307;SDS011;2167;53.448;9.984;2023-02-04T14:24:39;1.10;;;0.73;;
4307;SDS011;2167;53.448;9.984;2023-02-04T14:27:12;1.00;;;0.90;;
4307;SDS011;2167;53.448;9.984;2023-02-04T14:29:45;1.17;;;0.90;;
4307;SDS011;2167;53.448;9.984;2023-02-04T14:32:28;6.18;;;2.05;;
4307;SDS011;2167;53.448;9.984;2023-02-04T14:38:13;36.20;;;4.53;;
4307;SDS011;2167;53.448;9.984;2023-02-04T14:41:00;13.00;;;2.53;;
4307;SDS011;2167;53.448;9.984;2023-02-04T14:43:29;4.10;;;1.23;;
4307;SDS011;2167;53.448;9.984;2023-02-04T14:46:20;3.30;;;1.60;;
4307;SDS011;2167;53.448;9.984;2023-02-04T14:49:19;2.93;;;1.10;;
4307;SDS011;2167;53.448;9.984;2023-02-04T14:51:57;0.97;;;0.93;;
4307;SDS011;2167;53.448;9.984;2023-02-04T14:54:27;1.90;;;0.87;;
4307;SDS011;2167;53.448;9.984;2023-02-04T14:57:01;2.10;;;0.87;;
4307;SDS011;2167;53.448;9.984;2023-02-04T14:59:30;7.50;;;2.00;;
4307;SDS011;2167;53.448;9.984;2023-02-04T15:01:55;0.93;;;0.93;;
4307;SDS011;2167;53.448;9.984;2023-02-04T15:04:25;0.97;;;0.70;;
4307;SDS011;2167;53.448;9.984;2023-02-04T15:06:54;4.23;;;1.30;;
4307;SDS011;2167;53.448;9.984;2023-02-04T15:09:39;2.13;;;2.03;;
4307;SDS011;2167;53.448;9.984;2023-02-04T15:12:11;1.70;;;1.20;;
4307;SDS011;2167;53.448;9.984;2023-02-04T15:14:39;1.93;;;1.20;;
4307;SDS011;2167;53.448;9.984;2023-02-04T15:17:21;0.60;;;0.60;;
4307;SDS011;2167;53.448;9.984;2023-02-04T15:19:52;0.93;;;0.93;;
4307;SDS011;2167;53.448;9.984;2023-02-04T15:22:26;1.80;;;1.23;;
4307;SDS011;2167;53.448;9.984;2023-02-04T15:24:52;5.43;;;1.33;;
4307;SDS011;2167;53.448;9.984;2023-02-04T15:27:25;4.43;;;1.53;;
4307;SDS011;2167;53.448;9.984;2023-02-04T15:29:59;1.03;;;1.03;;
4307;SDS011;2167;53.448;9.984;2023-02-04T15:32:28;1.43;;;1.20;;
4307;SDS011;2167;53.448;9.984;2023-02-04T15:57:02;1.67;;;0.67;;
4307;SDS011;2167;53.448;9.984;2023-02-04T15:59:28;1.13;;;0.97;;
4307;SDS011;2167;53.448;9.984;2023-02-04T16:01:53;1.60;;;1.10;;
4307;SDS011;2167;53.448;9.984;2023-02-04T16:04:19;1.00;;;0.90;;
4307;SDS011;2167;53.448;9.984;2023-02-04T16:06:44;2.13;;;0.77;;
4307;SDS011;2167;53.448;9.984;2023-02-04T16:09:10;1.43;;;0.80;;
4307;SDS011;2167;53.448;9.984;2023-02-04T16:11:36;1.40;;;0.60;;
4307;SDS011;2167;53.448;9.984;2023-02-04T16:14:03;1.40;;;1.00;;
4307;SDS011;2167;53.448;9.984;2023-02-04T16:16:30;1.73;;;1.10;;
4307;SDS011;2167;53.448;9.984;2023-02-04T16:18:55;1.27;;;1.17;;
4307;SDS011;2167;53.448;9.984;2023-02-04T16:21:21;2.43;;;1.40;;
4307;SDS011;2167;53.448;9.984;2023-02-04T16:23:46;4.87;;;1.60;;
4307;SDS011;2167;53.448;9.984;2023-02-04T16:26:12;1.13;;;1.13;;
4307;SDS011;2167;53.448;9.984;2023-02-04T16:28:38;0.80;;;0.80;;
4307;SDS011;2167;53.448;9.984;2023-02-04T16:31:03;3.28;;;1.40;;
4307;SDS011;2167;53.448;9.984;2023-02-04T16:33:33;2.27;;;1.40;;